sensor_id;sensor_type;location;lat;lon;timestamp;P1;durP1;ratioP1;P2;durP2;ratioP2
6727;SDS011;3401;52.504;13.430;2022-08-19T00:01:36;1232.70;;;999.90;;
6727;SDS011;3401;52.504;13.430;2022-08-19T00:04:07;1225.43;;;999.90;;
6727;SDS011;3401;52.504;13.430;2022-08-19T00:06:36;1237.70;;;999.90;;
6727;SDS011;3401;52.504;13.430;2022-08-19T00:09:06;1238.50;;;999.90;;
6727;SDS011;3401;52.504;13.430;2022-08-19T00:11:36;1254.50;;;999.90;;
6727;SDS011;3401;52.504;13.430;2022-08-19T00:14:04;1244.33;;;999.90;;
6727;SDS011;3401;52.504;13.430;2022-08-19T00:16:35;1252.67;;;999.90;;
6727;SDS011;3401;52.504;13.430;2022-08-19T00:19:03;1240.40;;;999.90;;
6727;SDS011;3401;52.504;13.430;2022-08-19T00:21:32;1243.40;;;999.90;;
6727;SDS011;3401;52.504;13.430;2022-08-19T00:24:04;1248.17;;;999.90;;
6727;SDS011;3401;52.504;13.430;2022-08-19T00:26:32;1252.07;;;999.90;;
6727;SDS011;3401;52.504;13.430;2022-08-19T00:29:00;1253.43;;;999.90;;
6727;SDS011;3401;52.504;13.430;2022-08-19T00:31:28;1254.33;;;999.90;;
6727;SDS011;3401;52.504;13.430;2022-08-19T00:33:57;1246.83;;;999.90;;
6727;SDS011;3401;52.504;13.430;2022-08-19T00:36:25;1233.90;;;999.90;;
6727;SDS011;3401;52.504;13.430;2022-08-19T00:38:56;1233.50;;;999.90;;
6727;SDS011;3401;52.504;13.430;2022-08-19T00:41:25;1221.77;;;999.90;;
6727;SDS011;3401;52.504;13.430;2022-08-19T00:43:56;1219.33;;;999.90;;
6727;SDS011;3401;52.504;13.430;2022-08-19T00:46:27;1215.03;;;999.90;;
6727;SDS011;3401;52.504;13.430;2022-08-19T00:48:55;1221.87;;;999.90;;
6727;SDS011;3401;52.504;13.430;2022-08-19T00:51:24;1233.30;;;999.90;;
6727;SDS011;3401;52.504;13.430;2022-08-19T00:53:53;1231.80;;;999.90;;
6727;SDS011;3401;52.504;13.430;2022-08-19T00:56:23;1217.80;;;999.90;;
6727;SDS011;3401;52.504;13.430;2022-08-19T00:58:53;1234.23;;;999.90;;
6727;SDS011;3401;52.504;13.430;2022-08-19T01:01:22;1231.50;;;999.90;;
6727;SDS011;3401;52.504;13.430;2022-08-19T01:03:50;1245.00;;;999.90;;
6727;SDS011;3401;52.504;13.430;2022-08-19T01:06:23;1242.40;;;999.90;;
6727;SDS011;3401;52.504;13.430;2022-08-19T01:08:51;1243.83;;;999.90;;
6727;SDS011;3401;52.504;13.430;2022-08-19T01:11:21;1258.07;;;999.90;;
6727;SDS011;3401;52.504;13.430;2022-08-19T01:13:50;1260.10;;;999.90;;
6727;SDS011;3401;52.504;13.430;2022-08-19T01:16:20;1244.93;;;999.90;;
6727;SDS011;3401;52.504;13.430;2022-08-19T01:18:50;1245.20;;;999.90;;
6727;SDS011;3401;52.504;13.430;2022-08-19T01:21:19;1228.50;;;999.90;;
6727;SDS011;3401;52.504;13.430;2022-08-19T01:23:51;1244.07;;;999.90;;
6727;SDS011;3401;52.504;13.430;2022-08-19T01:26:19;1236.67;;;999.90;;
6727;SDS011;3401;52.504;13.430;2022-08-19T01:28:50;1239.00;;;999.90;;
6727;SDS011;3401;52.504;13.430;2022-08-19T01:31:26;1230.80;;;999.90;;
6727;SDS011;3401;52.504;13.430;2022-08-19T01:33:58;1121.03;;;959.70;;
6727;SDS011;3401;52.504;13.430;2022-08-19T01:36:28;1209.87;;;999.90;;
6727;SDS011;3401;52.504;13.430;2022-08-19T01:39:00;37.70;;;13.67;;
6727;SDS011;3401;52.504;13.430;2022-08-19T01:41:30;1221.27;;;999.90;;
6727;SDS011;3401;52.504;13.430;2022-08-19T01:43:58;1221.90;;;999.90;;
6727;SDS011;3401;52.504;13.430;2022-08-19T01:46:44;1215.73;;;999.90;;
6727;SDS011;3401;52.504;13.430;2022-08-19T01:49:14;1208.10;;;999.90;;
6727;SDS011;3401;52.504;13.430;2022-08-19T01:51:43;1209.20;;;999.90;;
6727;SDS011;3401;52.504;13.430;2022-08-19T01:54:15;1215.23;;;999.90;;
6727;SDS011;3401;52.504;13.430;2022-08-19T01:56:53;1149.20;;;976.37;;
6727;SDS011;3401;52.504;13.430;2022-08-19T01:59:23;1208.93;;;999.90;;
6727;SDS011;3401;52.504;13.430;2022-08-19T02:01:51;843.13;;;775.13;;
6727;SDS011;3401;52.504;13.430;2022-08-19T02:04:19;790.10;;;725.43;;
6727;SDS011;3401;52.504;13.430;2022-08-19T02:06:47;5.57;;;5.10;;
6727;SDS011;3401;52.504;13.430;2022-08-19T02:09:16;202.00;;;187.83;;
6727;SDS011;3401;52.504;13.430;2022-08-19T02:11:44;0.63;;;0.63;;
6727;SDS011;3401;52.504;13.430;2022-08-19T02:14:12;0.50;;;0.50;;
6727;SDS011;3401;52.504;13.430;2022-08-19T02:16:40;0.47;;;0.30;;
6727;SDS011;3401;52.504;13.430;2022-08-19T02:19:07;49.90;;;45.30;;
6727;SDS011;3401;52.504;13.430;2022-08-19T02:21:36;0.40;;;0.30;;
6727;SDS011;3401;52.504;13.430;2022-08-19T02:24:04;0.40;;;0.30;;
6727;SDS011;3401;52.504;13.430;2022-08-19T02:26:38;0.50;;;0.30;;
6727;SDS011;3401;52.504;13.430;2022-08-19T02:29:44;0.40;;;0.30;;
6727;SDS011;3401;52.504;13.430;2022-08-19T02:32:18;0.50;;;0.30;;
6727;SDS011;3401;52.504;13.430;2022-08-19T02:34:53;0.40;;;0.30;;
6727;SDS011;3401;52.504;13.430;2022-08-19T02:37:38;0.43;;;0.30;;
6727;SDS011;3401;52.504;13.430;2022-08-19T02:40:32;0.40;;;0.30;;
6727;SDS011;3401;52.504;13.430;2022-08-19T02:43:03;0.43;;;0.30;;
6727;SDS011;3401;52.504;13.430;2022-08-19T02:45:32;0.43;;;0.30;;
6727;SDS011;3401;52.504;13.430;2022-08-19T02:48:39;0.50;;;0.30;;
6727;SDS011;3401;52.504;13.430;2022-08-19T02:51:07;0.50;;;0.30;;
6727;SDS011;3401;52.504;13.430;2022-08-19T02:53:35;0.40;;;0.30;;
6727;SDS011;3401;52.504;13.430;2022-08-19T02:56:07;0.40;;;0.30;;
6727;SDS011;3401;52.504;13.430;2022-08-19T02:58:36;0.47;;;0.30;;
6727;SDS011;3401;52.504;13.430;2022-08-19T03:01:07;0.50;;;0.30;;
6727;SDS011;3401;52.504;13.430;2022-08-19T03:03:35;0.60;;;0.60;;
6727;SDS011;3401;52.504;13.430;2022-08-19T03:06:06;0.40;;;0.30;;
6727;SDS011;3401;52.504;13.430;2022-08-19T03:08:36;0.40;;;0.30;;
6727;SDS011;3401;52.504;13.430;2022-08-19T03:11:04;0.50;;;0.30;;
6727;SDS011;3401;52.504;13.430;2022-08-19T03:13:32;0.40;;;0.30;;
6727;SDS011;3401;52.504;13.430;2022-08-19T03:16:05;0.40;;;0.30;;
6727;SDS011;3401;52.504;13.430;2022-08-19T03:18:33;0.70;;;0.70;;
6727;SDS011;3401;52.504;13.430;2022-08-19T03:21:05;0.40;;;0.30;;
6727;SDS011;3401;52.504;13.430;2022-08-19T03:23:37;0.40;;;0.30;;
6727;SDS011;3401;52.504;13.430;2022-08-19T03:26:06;1.37;;;1.07;;
6727;SDS011;3401;52.504;13.430;2022-08-19T03:28:49;0.50;;;0.30;;
6727;SDS011;3401;52.504;13.430;2022-08-19T03:31:32;0.40;;;0.30;;
6727;SDS011;3401;52.504;13.430;2022-08-19T03:34:58;0.40;;;0.30;;
6727;SDS011;3401;52.504;13.430;2022-08-19T03:37:32;0.60;;;0.60;;
6727;SDS011;3401;52.504;13.430;2022-08-19T03:40:40;0.40;;;0.30;;
6727;SDS011;3401;52.504;13.430;2022-08-19T03:44:10;0.40;;;0.30;;
6727;SDS011;3401;52.504;13.430;2022-08-19T03:46:45;0.50;;;0.30;;
6727;SDS011;3401;52.504;13.430;2022-08-19T03:49:14;0.50;;;0.30;;
6727;SDS011;3401;52.504;13.430;2022-08-19T03:51:44;0.40;;;0.30;;
6727;SDS011;3401;52.504;13.430;2022-08-19T03:54:13;0.40;;;0.30;;
6727;SDS011;3401;52.504;13.430;2022-08-19T03:56:42;0.43;;;0.30;;
6727;SDS011;3401;52.504;13.430;2022-08-19T03:59:13;0.40;;;0.30;;
6727;SDS011;3401;52.504;13.430;2022-08-19T04:01:42;0.40;;;0.30;;
6727;SDS011;3401;52.504;13.430;2022-08-19T04:04:17;0.40;;;0.30;;
6727;SDS011;3401;52.504;13.430;2022-08-19T04:06:46;0.50;;;0.30;;
6727;SDS011;3401;52.504;13.430;2022-08-19T04:09:14;0.40;;;0.30;;
6727;SDS011;3401;52.504;13.430;2022-08-19T04:11:43;0.40;;;0.40;;
6727;SDS011;3401;52.504;13.430;2022-08-19T04:14:21;0.40;;;0.30;;
6727;SDS011;3401;52.504;13.430;2022-08-19T04:16:53;0.40;;;0.30;;
6727;SDS011;3401;52.504;13.430;2022-08-19T04:19:39;0.40;;;0.30;;
6727;SDS011;3401;52.504;13.430;2022-08-19T04:22:17;0.40;;;0.30;;
6727;SDS011;3401;52.504;13.430;2022-08-19T04:25:23;0.40;;;0.30;;
6727;SDS011;3401;52.504;13.430;2022-08-19T04:28:43;0.40;;;0.30;;
6727;SDS011;3401;52.504;13.430;2022-08-19T04:31:54;0.40;;;0.30;;
6727;SDS011;3401;52.504;13.430;2022-08-19T04:35:19;0.40;;;0.30;;
6727;SDS011;3401;52.504;13.430;2022-08-19T04:38:46;0.40;;;0.30;;
6727;SDS011;3401;52.504;13.430;2022-08-19T04:42:30;0.40;;;0.30;;
6727;SDS011;3401;52.504;13.430;2022-08-19T04:45:57;0.40;;;0.30;;
6727;SDS011;3401;52.504;13.430;2022-08-19T04:49:18;0.40;;;0.33;;
6727;SDS011;3401;52.504;13.430;2022-08-19T04:51:50;0.40;;;0.30;;
6727;SDS011;3401;52.504;13.430;2022-08-19T04:55:09;0.50;;;0.30;;
6727;SDS011;3401;52.504;13.430;2022-08-19T04:58:35;0.40;;;0.30;;
6727;SDS011;3401;52.504;13.430;2022-08-19T05:02:01;0.40;;;0.30;;
6727;SDS011;3401;52.504;13.430;2022-08-19T05:05:37;0.50;;;0.30;;
6727;SDS011;3401;52.504;13.430;2022-08-19T05:08:33;0.40;;;0.30;;
6727;SDS011;3401;52.504;13.430;2022-08-19T05:11:48;0.40;;;0.30;;
6727;SDS011;3401;52.504;13.430;2022-08-19T05:15:08;0.40;;;0.30;;
6727;SDS011;3401;52.504;13.430;2022-08-19T05:18:32;0.40;;;0.30;;
6727;SDS011;3401;52.504;13.430;2022-08-19T05:22:13;0.40;;;0.30;;
6727;SDS011;3401;52.504;13.430;2022-08-19T05:25:39;0.40;;;0.30;;
6727;SDS011;3401;52.504;13.430;2022-08-19T05:28:31;0.40;;;0.30;;
6727;SDS011;3401;52.504;13.430;2022-08-19T05:31:20;0.40;;;0.30;;
6727;SDS011;3401;52.504;13.430;2022-08-19T05:34:47;1.03;;;0.93;;
6727;SDS011;3401;52.504;13.430;2022-08-19T05:38:08;3.13;;;0.87;;
6727;SDS011;3401;52.504;13.430;2022-08-19T05:41:06;0.40;;;0.30;;
6727;SDS011;3401;52.504;13.430;2022-08-19T05:44:34;0.40;;;0.30;;
6727;SDS011;3401;52.504;13.430;2022-08-19T05:48:00;40.60;;;17.20;;
6727;SDS011;3401;52.504;13.430;2022-08-19T05:50:47;0.40;;;0.30;;
6727;SDS011;3401;52.504;13.430;2022-08-19T05:53:33;0.40;;;0.30;;
6727;SDS011;3401;52.504;13.430;2022-08-19T05:56:08;0.40;;;0.30;;
6727;SDS011;3401;52.504;13.430;2022-08-19T05:58:54;0.40;;;0.30;;
6727;SDS011;3401;52.504;13.430;2022-08-19T06:01:24;0.40;;;0.30;;
6727;SDS011;3401;52.504;13.430;2022-08-19T06:04:09;0.40;;;0.30;;
6727;SDS011;3401;52.504;13.430;2022-08-19T06:06:46;0.40;;;0.30;;
6727;SDS011;3401;52.504;13.430;2022-08-19T06:09:18;0.40;;;0.30;;
6727;SDS011;3401;52.504;13.430;2022-08-19T06:12:35;0.40;;;0.30;;
6727;SDS011;3401;52.504;13.430;2022-08-19T06:16:03;0.40;;;0.30;;
6727;SDS011;3401;52.504;13.430;2022-08-19T06:19:16;0.40;;;0.30;;
6727;SDS011;3401;52.504;13.430;2022-08-19T06:22:30;0.40;;;0.30;;
6727;SDS011;3401;52.504;13.430;2022-08-19T06:25:43;0.40;;;0.30;;
6727;SDS011;3401;52.504;13.430;2022-08-19T06:29:14;0.40;;;0.30;;
6727;SDS011;3401;52.504;13.430;2022-08-19T06:32:41;0.40;;;0.30;;
6727;SDS011;3401;52.504;13.430;2022-08-19T06:35:38;0.40;;;0.30;;
6727;SDS011;3401;52.504;13.430;2022-08-19T06:39:07;0.40;;;0.30;;
6727;SDS011;3401;52.504;13.430;2022-08-19T06:42:35;0.40;;;0.30;;
6727;SDS011;3401;52.504;13.430;2022-08-19T06:45:19;0.40;;;0.30;;
6727;SDS011;3401;52.504;13.430;2022-08-19T06:48:04;0.40;;;0.30;;
6727;SDS011;3401;52.504;13.430;2022-08-19T06:50:33;0.70;;;0.70;;
6727;SDS011;3401;52.504;13.430;2022-08-19T06:53:05;0.40;;;0.30;;
6727;SDS011;3401;52.504;13.430;2022-08-19T06:55:33;0.40;;;0.30;;
6727;SDS011;3401;52.504;13.430;2022-08-19T06:58:03;1.53;;;1.43;;
6727;SDS011;3401;52.504;13.430;2022-08-19T07:00:31;0.40;;;0.30;;
6727;SDS011;3401;52.504;13.430;2022-08-19T07:02:58;0.40;;;0.30;;
6727;SDS011;3401;52.504;13.430;2022-08-19T07:05:37;0.40;;;0.30;;
6727;SDS011;3401;52.504;13.430;2022-08-19T07:08:10;0.80;;;0.80;;
6727;SDS011;3401;52.504;13.430;2022-08-19T07:10:42;0.50;;;0.40;;
6727;SDS011;3401;52.504;13.430;2022-08-19T07:13:12;0.40;;;0.30;;
6727;SDS011;3401;52.504;13.430;2022-08-19T07:15:40;0.40;;;0.30;;
6727;SDS011;3401;52.504;13.430;2022-08-19T07:18:08;0.40;;;0.30;;
6727;SDS011;3401;52.504;13.430;2022-08-19T07:20:37;0.40;;;0.30;;
6727;SDS011;3401;52.504;13.430;2022-08-19T07:23:07;0.40;;;0.30;;
6727;SDS011;3401;52.504;13.430;2022-08-19T07:25:42;0.40;;;0.30;;
6727;SDS011;3401;52.504;13.430;2022-08-19T07:28:19;1.70;;;1.60;;
6727;SDS011;3401;52.504;13.430;2022-08-19T07:30:50;0.40;;;0.30;;
6727;SDS011;3401;52.504;13.430;2022-08-19T07:33:18;0.40;;;0.30;;
6727;SDS011;3401;52.504;13.430;2022-08-19T07:35:46;0.40;;;0.30;;
6727;SDS011;3401;52.504;13.430;2022-08-19T07:38:15;0.40;;;0.30;;
6727;SDS011;3401;52.504;13.430;2022-08-19T07:40:43;0.40;;;0.30;;
6727;SDS011;3401;52.504;13.430;2022-08-19T07:43:12;0.40;;;0.30;;
6727;SDS011;3401;52.504;13.430;2022-08-19T07:45:45;0.40;;;0.30;;
6727;SDS011;3401;52.504;13.430;2022-08-19T07:48:13;0.40;;;0.30;;
6727;SDS011;3401;52.504;13.430;2022-08-19T07:50:41;0.40;;;0.30;;
6727;SDS011;3401;52.504;13.430;2022-08-19T07:53:09;0.40;;;0.30;;
6727;SDS011;3401;52.504;13.430;2022-08-19T07:55:38;0.40;;;0.30;;
6727;SDS011;3401;52.504;13.430;2022-08-19T07:58:09;0.40;;;0.30;;
6727;SDS011;3401;52.504;13.430;2022-08-19T08:00:38;0.40;;;0.30;;
6727;SDS011;3401;52.504;13.430;2022-08-19T08:03:08;0.40;;;0.40;;
6727;SDS011;3401;52.504;13.430;2022-08-19T08:05:36;0.40;;;0.30;;
6727;SDS011;3401;52.504;13.430;2022-08-19T08:08:22;0.40;;;0.30;;
6727;SDS011;3401;52.504;13.430;2022-08-19T08:11:12;2.63;;;2.50;;
6727;SDS011;3401;52.504;13.430;2022-08-19T08:13:43;0.40;;;0.30;;
6727;SDS011;3401;52.504;13.430;2022-08-19T08:16:11;0.40;;;0.40;;
6727;SDS011;3401;52.504;13.430;2022-08-19T08:18:41;0.40;;;0.30;;
6727;SDS011;3401;52.504;13.430;2022-08-19T08:21:16;0.40;;;0.30;;
6727;SDS011;3401;52.504;13.430;2022-08-19T08:23:43;0.40;;;0.30;;
6727;SDS011;3401;52.504;13.430;2022-08-19T08:26:11;0.40;;;0.30;;
6727;SDS011;3401;52.504;13.430;2022-08-19T08:28:41;0.83;;;0.83;;
6727;SDS011;3401;52.504;13.430;2022-08-19T08:31:13;0.40;;;0.30;;
6727;SDS011;3401;52.504;13.430;2022-08-19T08:33:43;0.40;;;0.30;;
6727;SDS011;3401;52.504;13.430;2022-08-19T08:36:11;0.40;;;0.30;;
6727;SDS011;3401;52.504;13.430;2022-08-19T08:38:41;0.40;;;0.40;;
6727;SDS011;3401;52.504;13.430;2022-08-19T08:41:14;0.40;;;0.30;;
6727;SDS011;3401;52.504;13.430;2022-08-19T08:43:47;0.40;;;0.30;;
6727;SDS011;3401;52.504;13.430;2022-08-19T08:46:21;2.73;;;2.53;;
6727;SDS011;3401;52.504;13.430;2022-08-19T08:48:59;0.40;;;0.30;;
6727;SDS011;3401;52.504;13.430;2022-08-19T08:51:32;0.40;;;0.30;;
6727;SDS011;3401;52.504;13.430;2022-08-19T08:54:07;0.83;;;0.80;;
6727;SDS011;3401;52.504;13.430;2022-08-19T08:56:37;0.40;;;0.27;;
6727;SDS011;3401;52.504;13.430;2022-08-19T08:59:07;0.40;;;0.30;;
6727;SDS011;3401;52.504;13.430;2022-08-19T09:01:39;0.40;;;0.30;;
6727;SDS011;3401;52.504;13.430;2022-08-19T09:04:09;0.40;;;0.30;;
6727;SDS011;3401;52.504;13.430;2022-08-19T09:06:40;0.40;;;0.30;;
6727;SDS011;3401;52.504;13.430;2022-08-19T09:09:13;0.40;;;0.30;;
6727;SDS011;3401;52.504;13.430;2022-08-19T09:11:52;0.40;;;0.20;;
6727;SDS011;3401;52.504;13.430;2022-08-19T09:14:31;0.40;;;0.30;;
6727;SDS011;3401;52.504;13.430;2022-08-19T09:17:18;0.40;;;0.40;;
6727;SDS011;3401;52.504;13.430;2022-08-19T09:19:56;0.40;;;0.30;;
6727;SDS011;3401;52.504;13.430;2022-08-19T09:22:27;0.40;;;0.27;;
6727;SDS011;3401;52.504;13.430;2022-08-19T09:24:55;0.40;;;0.30;;
6727;SDS011;3401;52.504;13.430;2022-08-19T09:27:24;0.40;;;0.33;;
6727;SDS011;3401;52.504;13.430;2022-08-19T09:30:10;0.40;;;0.30;;
6727;SDS011;3401;52.504;13.430;2022-08-19T09:32:41;0.40;;;0.30;;
6727;SDS011;3401;52.504;13.430;2022-08-19T09:35:11;0.40;;;0.30;;
6727;SDS011;3401;52.504;13.430;2022-08-19T09:37:40;0.40;;;0.30;;
6727;SDS011;3401;52.504;13.430;2022-08-19T09:40:09;0.40;;;0.30;;
6727;SDS011;3401;52.504;13.430;2022-08-19T09:42:41;0.40;;;0.30;;
6727;SDS011;3401;52.504;13.430;2022-08-19T09:45:17;0.40;;;0.30;;
6727;SDS011;3401;52.504;13.430;2022-08-19T09:47:46;0.40;;;0.30;;
6727;SDS011;3401;52.504;13.430;2022-08-19T09:50:16;0.40;;;0.30;;
6727;SDS011;3401;52.504;13.430;2022-08-19T09:52:45;0.40;;;0.30;;
6727;SDS011;3401;52.504;13.430;2022-08-19T09:55:22;0.50;;;0.50;;
6727;SDS011;3401;52.504;13.430;2022-08-19T09:57:58;0.40;;;0.30;;
6727;SDS011;3401;52.504;13.430;2022-08-19T10:00:27;0.40;;;0.30;;
6727;SDS011;3401;52.504;13.430;2022-08-19T10:02:55;0.40;;;0.30;;
6727;SDS011;3401;52.504;13.430;2022-08-19T10:05:25;0.40;;;0.40;;
6727;SDS011;3401;52.504;13.430;2022-08-19T10:08:14;0.40;;;0.30;;
6727;SDS011;3401;52.504;13.430;2022-08-19T10:10:43;0.40;;;0.30;;
6727;SDS011;3401;52.504;13.430;2022-08-19T10:13:13;0.40;;;0.30;;
6727;SDS011;3401;52.504;13.430;2022-08-19T10:15:42;0.60;;;0.50;;
6727;SDS011;3401;52.504;13.430;2022-08-19T10:18:13;0.40;;;0.30;;
6727;SDS011;3401;52.504;13.430;2022-08-19T10:20:44;0.50;;;0.50;;
6727;SDS011;3401;52.504;13.430;2022-08-19T10:23:18;0.40;;;0.30;;
6727;SDS011;3401;52.504;13.430;2022-08-19T10:25:46;0.40;;;0.30;;
6727;SDS011;3401;52.504;13.430;2022-08-19T10:28:15;0.40;;;0.30;;
6727;SDS011;3401;52.504;13.430;2022-08-19T10:30:44;0.40;;;0.30;;
6727;SDS011;3401;52.504;13.430;2022-08-19T10:33:13;0.40;;;0.30;;
6727;SDS011;3401;52.504;13.430;2022-08-19T10:36:07;11.20;;;7.93;;
6727;SDS011;3401;52.504;13.430;2022-08-19T10:38:37;5.80;;;1.40;;
6727;SDS011;3401;52.504;13.430;2022-08-19T10:41:18;1.10;;;0.80;;
6727;SDS011;3401;52.504;13.430;2022-08-19T10:43:50;20.43;;;12.00;;
6727;SDS011;3401;52.504;13.430;2022-08-19T10:46:18;19.97;;;12.57;;
6727;SDS011;3401;52.504;13.430;2022-08-19T10:48:46;20.20;;;11.27;;
6727;SDS011;3401;52.504;13.430;2022-08-19T10:51:17;19.67;;;11.80;;
6727;SDS011;3401;52.504;13.430;2022-08-19T10:54:11;18.20;;;9.90;;
6727;SDS011;3401;52.504;13.430;2022-08-19T10:56:40;15.07;;;9.83;;
6727;SDS011;3401;52.504;13.430;2022-08-19T10:59:19;18.27;;;12.20;;
6727;SDS011;3401;52.504;13.430;2022-08-19T11:01:52;22.83;;;13.30;;
6727;SDS011;3401;52.504;13.430;2022-08-19T11:04:22;21.67;;;12.50;;
6727;SDS011;3401;52.504;13.430;2022-08-19T11:06:56;19.60;;;11.70;;
6727;SDS011;3401;52.504;13.430;2022-08-19T11:09:24;22.13;;;10.93;;
6727;SDS011;3401;52.504;13.430;2022-08-19T11:11:59;21.87;;;12.67;;
6727;SDS011;3401;52.504;13.430;2022-08-19T11:14:30;16.63;;;9.40;;
6727;SDS011;3401;52.504;13.430;2022-08-19T11:16:59;16.20;;;10.60;;
6727;SDS011;3401;52.504;13.430;2022-08-19T11:19:28;17.20;;;10.97;;
6727;SDS011;3401;52.504;13.430;2022-08-19T11:21:57;11.80;;;8.27;;
6727;SDS011;3401;52.504;13.430;2022-08-19T11:24:29;18.57;;;9.63;;
6727;SDS011;3401;52.504;13.430;2022-08-19T11:27:00;11.20;;;7.77;;
6727;SDS011;3401;52.504;13.430;2022-08-19T11:29:30;9.73;;;7.20;;
6727;SDS011;3401;52.504;13.430;2022-08-19T11:32:02;15.33;;;10.17;;
6727;SDS011;3401;52.504;13.430;2022-08-19T11:34:32;18.27;;;11.10;;
6727;SDS011;3401;52.504;13.430;2022-08-19T11:37:03;17.10;;;9.60;;
6727;SDS011;3401;52.504;13.430;2022-08-19T11:39:32;17.37;;;9.70;;
6727;SDS011;3401;52.504;13.430;2022-08-19T11:42:02;14.43;;;9.73;;
6727;SDS011;3401;52.504;13.430;2022-08-19T11:44:52;12.43;;;8.93;;
6727;SDS011;3401;52.504;13.430;2022-08-19T11:47:20;13.63;;;8.80;;
6727;SDS011;3401;52.504;13.430;2022-08-19T11:49:48;13.03;;;9.23;;
6727;SDS011;3401;52.504;13.430;2022-08-19T11:52:17;20.90;;;10.53;;
6727;SDS011;3401;52.504;13.430;2022-08-19T11:54:45;17.47;;;10.57;;
6727;SDS011;3401;52.504;13.430;2022-08-19T11:57:13;17.03;;;8.20;;
6727;SDS011;3401;52.504;13.430;2022-08-19T11:59:49;13.13;;;8.73;;
6727;SDS011;3401;52.504;13.430;2022-08-19T12:02:19;14.47;;;8.30;;
6727;SDS011;3401;52.504;13.430;2022-08-19T12:04:48;9.87;;;6.63;;
6727;SDS011;3401;52.504;13.430;2022-08-19T12:07:15;9.70;;;5.67;;
6727;SDS011;3401;52.504;13.430;2022-08-19T12:09:45;13.03;;;7.77;;
6727;SDS011;3401;52.504;13.430;2022-08-19T12:12:14;11.13;;;8.10;;
6727;SDS011;3401;52.504;13.430;2022-08-19T12:14:42;11.37;;;7.47;;
6727;SDS011;3401;52.504;13.430;2022-08-19T12:17:11;17.43;;;8.70;;
6727;SDS011;3401;52.504;13.430;2022-08-19T12:19:39;8.33;;;5.87;;
6727;SDS011;3401;52.504;13.430;2022-08-19T12:22:07;10.53;;;7.20;;
6727;SDS011;3401;52.504;13.430;2022-08-19T12:24:36;11.63;;;6.50;;
6727;SDS011;3401;52.504;13.430;2022-08-19T12:27:04;11.20;;;7.50;;
6727;SDS011;3401;52.504;13.430;2022-08-19T12:29:38;13.43;;;6.70;;
6727;SDS011;3401;52.504;13.430;2022-08-19T12:32:07;16.33;;;6.40;;
6727;SDS011;3401;52.504;13.430;2022-08-19T12:34:38;12.47;;;7.80;;
6727;SDS011;3401;52.504;13.430;2022-08-19T12:37:06;12.50;;;7.40;;
6727;SDS011;3401;52.504;13.430;2022-08-19T12:39:36;14.37;;;7.50;;
6727;SDS011;3401;52.504;13.430;2022-08-19T12:42:06;11.20;;;6.33;;
6727;SDS011;3401;52.504;13.430;2022-08-19T12:44:35;12.37;;;6.57;;
6727;SDS011;3401;52.504;13.430;2022-08-19T12:47:03;9.37;;;6.07;;
6727;SDS011;3401;52.504;13.430;2022-08-19T12:49:33;12.30;;;5.33;;
6727;SDS011;3401;52.504;13.430;2022-08-19T12:52:20;10.10;;;6.63;;
6727;SDS011;3401;52.504;13.430;2022-08-19T12:54:50;8.23;;;4.00;;
6727;SDS011;3401;52.504;13.430;2022-08-19T12:57:20;13.20;;;6.37;;
6727;SDS011;3401;52.504;13.430;2022-08-19T12:59:57;11.33;;;5.23;;
6727;SDS011;3401;52.504;13.430;2022-08-19T13:02:25;10.17;;;6.00;;
6727;SDS011;3401;52.504;13.430;2022-08-19T13:04:53;12.10;;;6.10;;
6727;SDS011;3401;52.504;13.430;2022-08-19T13:07:24;12.93;;;6.00;;
6727;SDS011;3401;52.504;13.430;2022-08-19T13:09:53;10.13;;;6.23;;
6727;SDS011;3401;52.504;13.430;2022-08-19T13:12:24;9.10;;;6.17;;
6727;SDS011;3401;52.504;13.430;2022-08-19T13:14:52;7.93;;;3.47;;
6727;SDS011;3401;52.504;13.430;2022-08-19T13:17:20;6.37;;;4.70;;
6727;SDS011;3401;52.504;13.430;2022-08-19T13:19:49;7.60;;;4.67;;
6727;SDS011;3401;52.504;13.430;2022-08-19T13:22:17;10.00;;;6.13;;
6727;SDS011;3401;52.504;13.430;2022-08-19T13:24:45;9.50;;;6.23;;
6727;SDS011;3401;52.504;13.430;2022-08-19T13:27:14;10.57;;;6.30;;
6727;SDS011;3401;52.504;13.430;2022-08-19T13:29:42;9.33;;;6.20;;
6727;SDS011;3401;52.504;13.430;2022-08-19T13:32:28;10.93;;;4.97;;
6727;SDS011;3401;52.504;13.430;2022-08-19T13:35:14;8.03;;;4.60;;
6727;SDS011;3401;52.504;13.430;2022-08-19T13:37:44;13.10;;;7.03;;
6727;SDS011;3401;52.504;13.430;2022-08-19T13:40:12;10.00;;;6.90;;
6727;SDS011;3401;52.504;13.430;2022-08-19T13:42:47;12.77;;;5.70;;
6727;SDS011;3401;52.504;13.430;2022-08-19T13:45:16;11.00;;;7.50;;
6727;SDS011;3401;52.504;13.430;2022-08-19T13:47:46;8.20;;;7.20;;
6727;SDS011;3401;52.504;13.430;2022-08-19T13:50:15;10.53;;;7.20;;
6727;SDS011;3401;52.504;13.430;2022-08-19T13:52:44;10.63;;;6.93;;
6727;SDS011;3401;52.504;13.430;2022-08-19T13:55:12;11.97;;;7.67;;
6727;SDS011;3401;52.504;13.430;2022-08-19T13:57:51;8.97;;;7.20;;
6727;SDS011;3401;52.504;13.430;2022-08-19T14:00:20;10.37;;;7.10;;
6727;SDS011;3401;52.504;13.430;2022-08-19T14:02:51;6.70;;;4.57;;
6727;SDS011;3401;52.504;13.430;2022-08-19T14:05:20;10.97;;;6.87;;
6727;SDS011;3401;52.504;13.430;2022-08-19T14:07:48;10.10;;;7.23;;
6727;SDS011;3401;52.504;13.430;2022-08-19T14:10:16;9.23;;;6.30;;
6727;SDS011;3401;52.504;13.430;2022-08-19T14:12:45;16.53;;;7.73;;
6727;SDS011;3401;52.504;13.430;2022-08-19T14:15:15;12.20;;;7.43;;
6727;SDS011;3401;52.504;13.430;2022-08-19T14:17:43;8.03;;;6.63;;
6727;SDS011;3401;52.504;13.430;2022-08-19T14:20:15;10.47;;;7.40;;
6727;SDS011;3401;52.504;13.430;2022-08-19T14:22:44;10.10;;;6.50;;
6727;SDS011;3401;52.504;13.430;2022-08-19T14:25:14;13.73;;;7.10;;
6727;SDS011;3401;52.504;13.430;2022-08-19T14:27:43;13.77;;;7.20;;
6727;SDS011;3401;52.504;13.430;2022-08-19T14:30:12;9.63;;;6.87;;
6727;SDS011;3401;52.504;13.430;2022-08-19T14:32:45;18.93;;;6.83;;
6727;SDS011;3401;52.504;13.430;2022-08-19T14:35:13;6.90;;;4.63;;
6727;SDS011;3401;52.504;13.430;2022-08-19T14:37:43;7.70;;;6.30;;
6727;SDS011;3401;52.504;13.430;2022-08-19T14:40:13;10.53;;;6.93;;
6727;SDS011;3401;52.504;13.430;2022-08-19T14:42:42;9.70;;;6.87;;
6727;SDS011;3401;52.504;13.430;2022-08-19T14:45:11;11.80;;;6.47;;
6727;SDS011;3401;52.504;13.430;2022-08-19T14:47:40;14.73;;;7.63;;
6727;SDS011;3401;52.504;13.430;2022-08-19T14:50:11;9.63;;;6.43;;
6727;SDS011;3401;52.504;13.430;2022-08-19T14:52:44;11.00;;;7.87;;
6727;SDS011;3401;52.504;13.430;2022-08-19T14:55:13;9.93;;;6.00;;
6727;SDS011;3401;52.504;13.430;2022-08-19T14:57:41;9.67;;;6.90;;
6727;SDS011;3401;52.504;13.430;2022-08-19T15:00:09;11.60;;;6.87;;
6727;SDS011;3401;52.504;13.430;2022-08-19T15:02:40;8.00;;;6.10;;
6727;SDS011;3401;52.504;13.430;2022-08-19T15:05:10;11.87;;;6.07;;
6727;SDS011;3401;52.504;13.430;2022-08-19T15:07:38;9.50;;;6.50;;
6727;SDS011;3401;52.504;13.430;2022-08-19T15:10:07;10.63;;;7.43;;
6727;SDS011;3401;52.504;13.430;2022-08-19T15:12:37;7.20;;;5.80;;
6727;SDS011;3401;52.504;13.430;2022-08-19T15:15:06;9.50;;;6.50;;
6727;SDS011;3401;52.504;13.430;2022-08-19T15:17:35;4.83;;;2.23;;
6727;SDS011;3401;52.504;13.430;2022-08-19T15:20:14;6.67;;;4.93;;
6727;SDS011;3401;52.504;13.430;2022-08-19T15:22:43;19.37;;;7.00;;
6727;SDS011;3401;52.504;13.430;2022-08-19T15:25:13;12.97;;;7.60;;
6727;SDS011;3401;52.504;13.430;2022-08-19T15:27:44;15.03;;;8.77;;
6727;SDS011;3401;52.504;13.430;2022-08-19T15:30:17;9.77;;;4.27;;
6727;SDS011;3401;52.504;13.430;2022-08-19T15:32:47;12.83;;;7.47;;
6727;SDS011;3401;52.504;13.430;2022-08-19T15:35:16;15.00;;;9.57;;
6727;SDS011;3401;52.504;13.430;2022-08-19T15:37:47;22.03;;;10.27;;
6727;SDS011;3401;52.504;13.430;2022-08-19T15:40:16;14.17;;;9.20;;
6727;SDS011;3401;52.504;13.430;2022-08-19T15:42:44;13.70;;;6.90;;
6727;SDS011;3401;52.504;13.430;2022-08-19T15:45:13;15.60;;;8.63;;